sensor_id;sensor_type;location;lat;lon;timestamp;P1;durP1;ratioP1;P2;durP2;ratioP2
56657;SDS011;42530;52.240;19.354;2022-09-09T00:00:40;20.15;;;16.27;;
56657;SDS011;42530;52.240;19.354;2022-09-09T00:03:16;16.88;;;15.40;;
56657;SDS011;42530;52.240;19.354;2022-09-09T00:05:56;18.08;;;16.30;;
56657;SDS011;42530;52.240;19.354;2022-09-09T00:09:08;17.92;;;16.20;;
56657;SDS011;42530;52.240;19.354;2022-09-09T00:11:40;16.92;;;15.27;;
56657;SDS011;42530;52.240;19.354;2022-09-09T00:14:10;21.67;;;17.17;;
56657;SDS011;42530;52.240;19.354;2022-09-09T00:16:43;16.98;;;15.45;;
56657;SDS011;42530;52.240;19.354;2022-09-09T00:24:54;19.42;;;17.55;;
56657;SDS011;42530;52.240;19.354;2022-09-09T00:27:31;19.52;;;17.42;;
56657;SDS011;42530;52.240;19.354;2022-09-09T00:30:22;18.27;;;16.45;;
56657;SDS011;42530;52.240;19.354;2022-09-09T00:32:54;18.98;;;17.10;;
56657;SDS011;42530;52.240;19.354;2022-09-09T00:35:34;19.80;;;18.00;;
56657;SDS011;42530;52.240;19.354;2022-09-09T00:44:03;19.58;;;17.70;;
56657;SDS011;42530;52.240;19.354;2022-09-09T00:52:30;16.58;;;14.60;;
56657;SDS011;42530;52.240;19.354;2022-09-09T00:57:57;15.85;;;14.35;;
56657;SDS011;42530;52.240;19.354;2022-09-09T01:00:24;15.32;;;13.73;;
56657;SDS011;42530;52.240;19.354;2022-09-09T01:05:27;18.38;;;16.65;;
56657;SDS011;42530;52.240;19.354;2022-09-09T01:08:01;19.98;;;18.02;;
56657;SDS011;42530;52.240;19.354;2022-09-09T01:10:41;23.15;;;20.85;;
56657;SDS011;42530;52.240;19.354;2022-09-09T01:13:28;23.13;;;20.83;;
56657;SDS011;42530;52.240;19.354;2022-09-09T01:15:56;22.42;;;20.30;;
56657;SDS011;42530;52.240;19.354;2022-09-09T01:18:26;20.60;;;18.48;;
56657;SDS011;42530;52.240;19.354;2022-09-09T01:28:46;20.30;;;17.10;;
56657;SDS011;42530;52.240;19.354;2022-09-09T01:31:17;21.55;;;19.55;;
56657;SDS011;42530;52.240;19.354;2022-09-09T01:33:45;21.98;;;19.85;;
56657;SDS011;42530;52.240;19.354;2022-09-09T01:38:42;24.00;;;21.50;;
56657;SDS011;42530;52.240;19.354;2022-09-09T01:41:07;21.40;;;19.30;;
56657;SDS011;42530;52.240;19.354;2022-09-09T01:43:33;23.30;;;20.85;;
56657;SDS011;42530;52.240;19.354;2022-09-09T01:45:59;22.45;;;20.20;;
56657;SDS011;42530;52.240;19.354;2022-09-09T01:48:26;19.80;;;18.10;;
56657;SDS011;42530;52.240;19.354;2022-09-09T01:50:53;17.75;;;16.05;;
56657;SDS011;42530;52.240;19.354;2022-09-09T01:53:19;17.33;;;15.63;;
56657;SDS011;42530;52.240;19.354;2022-09-09T01:55:53;17.15;;;15.65;;
56657;SDS011;42530;52.240;19.354;2022-09-09T02:04:28;15.15;;;13.75;;
56657;SDS011;42530;52.240;19.354;2022-09-09T02:06:56;16.98;;;15.43;;
56657;SDS011;42530;52.240;19.354;2022-09-09T02:09:23;16.20;;;14.63;;
56657;SDS011;42530;52.240;19.354;2022-09-09T02:11:52;16.92;;;15.23;;
56657;SDS011;42530;52.240;19.354;2022-09-09T02:16:59;15.30;;;13.80;;
56657;SDS011;42530;52.240;19.354;2022-09-09T02:19:31;17.77;;;14.90;;
56657;SDS011;42530;52.240;19.354;2022-09-09T02:22:00;16.73;;;15.10;;
56657;SDS011;42530;52.240;19.354;2022-09-09T02:24:27;16.42;;;14.82;;
56657;SDS011;42530;52.240;19.354;2022-09-09T02:26:55;15.63;;;14.23;;
56657;SDS011;42530;52.240;19.354;2022-09-09T02:29:28;15.65;;;14.10;;
56657;SDS011;42530;52.240;19.354;2022-09-09T02:32:00;14.00;;;12.88;;
56657;SDS011;42530;52.240;19.354;2022-09-09T02:34:30;14.55;;;13.10;;
56657;SDS011;42530;52.240;19.354;2022-09-09T02:36:58;14.65;;;13.35;;
56657;SDS011;42530;52.240;19.354;2022-09-09T02:39:25;15.27;;;13.77;;
56657;SDS011;42530;52.240;19.354;2022-09-09T02:41:51;15.77;;;14.40;;
56657;SDS011;42530;52.240;19.354;2022-09-09T02:44:18;17.15;;;14.57;;
56657;SDS011;42530;52.240;19.354;2022-09-09T02:49:10;18.98;;;14.13;;
56657;SDS011;42530;52.240;19.354;2022-09-09T02:51:51;15.77;;;14.30;;
56657;SDS011;42530;52.240;19.354;2022-09-09T02:54:33;16.80;;;15.23;;
56657;SDS011;42530;52.240;19.354;2022-09-09T02:57:06;19.65;;;17.73;;
56657;SDS011;42530;52.240;19.354;2022-09-09T02:59:36;21.10;;;19.25;;
56657;SDS011;42530;52.240;19.354;2022-09-09T03:02:02;25.75;;;23.55;;
56657;SDS011;42530;52.240;19.354;2022-09-09T03:04:28;24.98;;;22.52;;
56657;SDS011;42530;52.240;19.354;2022-09-09T03:06:55;20.42;;;18.73;;
56657;SDS011;42530;52.240;19.354;2022-09-09T03:09:21;18.05;;;16.35;;
56657;SDS011;42530;52.240;19.354;2022-09-09T03:11:46;16.73;;;15.07;;
56657;SDS011;42530;52.240;19.354;2022-09-09T03:14:12;16.52;;;14.82;;
56657;SDS011;42530;52.240;19.354;2022-09-09T03:16:37;15.70;;;14.18;;
56657;SDS011;42530;52.240;19.354;2022-09-09T03:19:03;20.42;;;18.38;;
56657;SDS011;42530;52.240;19.354;2022-09-09T03:21:28;17.90;;;16.20;;
56657;SDS011;42530;52.240;19.354;2022-09-09T03:23:54;21.38;;;18.23;;
56657;SDS011;42530;52.240;19.354;2022-09-09T03:26:19;20.50;;;18.55;;
56657;SDS011;42530;52.240;19.354;2022-09-09T03:28:45;16.88;;;14.50;;
56657;SDS011;42530;52.240;19.354;2022-09-09T03:31:11;17.60;;;16.17;;
56657;SDS011;42530;52.240;19.354;2022-09-09T03:33:36;22.52;;;19.73;;
56657;SDS011;42530;52.240;19.354;2022-09-09T03:36:03;20.75;;;18.75;;
56657;SDS011;42530;52.240;19.354;2022-09-09T03:38:29;21.20;;;19.27;;
56657;SDS011;42530;52.240;19.354;2022-09-09T03:40:55;20.35;;;18.52;;
56657;SDS011;42530;52.240;19.354;2022-09-09T03:43:23;17.70;;;15.43;;
56657;SDS011;42530;52.240;19.354;2022-09-09T03:45:49;16.90;;;14.27;;
56657;SDS011;42530;52.240;19.354;2022-09-09T03:48:15;18.27;;;16.67;;
56657;SDS011;42530;52.240;19.354;2022-09-09T03:50:45;20.08;;;18.27;;
56657;SDS011;42530;52.240;19.354;2022-09-09T03:53:13;24.63;;;17.17;;
56657;SDS011;42530;52.240;19.354;2022-09-09T03:55:43;20.85;;;18.67;;
56657;SDS011;42530;52.240;19.354;2022-09-09T03:58:09;19.23;;;17.17;;
56657;SDS011;42530;52.240;19.354;2022-09-09T04:00:35;19.60;;;17.80;;
56657;SDS011;42530;52.240;19.354;2022-09-09T04:03:01;25.98;;;23.40;;
56657;SDS011;42530;52.240;19.354;2022-09-09T04:05:27;23.30;;;21.27;;
56657;SDS011;42530;52.240;19.354;2022-09-09T04:07:53;22.52;;;20.20;;
56657;SDS011;42530;52.240;19.354;2022-09-09T04:10:19;19.45;;;17.55;;
56657;SDS011;42530;52.240;19.354;2022-09-09T04:12:46;19.15;;;17.20;;
56657;SDS011;42530;52.240;19.354;2022-09-09T04:15:11;19.08;;;17.40;;
56657;SDS011;42530;52.240;19.354;2022-09-09T04:17:36;18.02;;;16.40;;
56657;SDS011;42530;52.240;19.354;2022-09-09T04:20:02;17.77;;;15.95;;
56657;SDS011;42530;52.240;19.354;2022-09-09T04:22:28;18.38;;;16.58;;
56657;SDS011;42530;52.240;19.354;2022-09-09T04:24:53;16.40;;;14.80;;
56657;SDS011;42530;52.240;19.354;2022-09-09T04:27:19;22.13;;;20.05;;
56657;SDS011;42530;52.240;19.354;2022-09-09T04:29:44;16.20;;;14.63;;
56657;SDS011;42530;52.240;19.354;2022-09-09T04:32:09;20.38;;;15.98;;
56657;SDS011;42530;52.240;19.354;2022-09-09T04:34:35;17.30;;;15.02;;
56657;SDS011;42530;52.240;19.354;2022-09-09T04:37:00;17.00;;;14.60;;
56657;SDS011;42530;52.240;19.354;2022-09-09T04:39:26;16.95;;;15.20;;
56657;SDS011;42530;52.240;19.354;2022-09-09T04:41:51;19.60;;;15.25;;
56657;SDS011;42530;52.240;19.354;2022-09-09T04:44:18;16.75;;;15.23;;
56657;SDS011;42530;52.240;19.354;2022-09-09T04:46:43;15.20;;;13.68;;
56657;SDS011;42530;52.240;19.354;2022-09-09T04:49:10;17.58;;;15.88;;
56657;SDS011;42530;52.240;19.354;2022-09-09T04:51:35;17.98;;;16.02;;
56657;SDS011;42530;52.240;19.354;2022-09-09T04:54:01;15.98;;;14.35;;
56657;SDS011;42530;52.240;19.354;2022-09-09T04:56:26;19.23;;;17.27;;
56657;SDS011;42530;52.240;19.354;2022-09-09T04:58:52;23.92;;;21.65;;
56657;SDS011;42530;52.240;19.354;2022-09-09T05:01:18;30.10;;;27.17;;
56657;SDS011;42530;52.240;19.354;2022-09-09T05:03:47;30.83;;;28.13;;
56657;SDS011;42530;52.240;19.354;2022-09-09T05:06:16;21.70;;;19.10;;
56657;SDS011;42530;52.240;19.354;2022-09-09T05:08:44;22.08;;;16.40;;
56657;SDS011;42530;52.240;19.354;2022-09-09T05:13:48;16.15;;;14.45;;
56657;SDS011;42530;52.240;19.354;2022-09-09T05:16:15;17.48;;;15.65;;
56657;SDS011;42530;52.240;19.354;2022-09-09T05:18:42;15.30;;;13.77;;
56657;SDS011;42530;52.240;19.354;2022-09-09T05:21:08;17.45;;;15.88;;
56657;SDS011;42530;52.240;19.354;2022-09-09T05:23:34;15.82;;;14.32;;
56657;SDS011;42530;52.240;19.354;2022-09-09T05:26:01;16.77;;;15.05;;
56657;SDS011;42530;52.240;19.354;2022-09-09T05:28:27;17.02;;;14.93;;
56657;SDS011;42530;52.240;19.354;2022-09-09T05:30:57;23.23;;;20.98;;
56657;SDS011;42530;52.240;19.354;2022-09-09T05:33:29;31.08;;;28.20;;
56657;SDS011;42530;52.240;19.354;2022-09-09T05:35:58;26.42;;;23.92;;
56657;SDS011;42530;52.240;19.354;2022-09-09T05:38:26;26.27;;;23.92;;
56657;SDS011;42530;52.240;19.354;2022-09-09T05:40:52;24.42;;;22.27;;
56657;SDS011;42530;52.240;19.354;2022-09-09T05:43:19;25.35;;;23.00;;
56657;SDS011;42530;52.240;19.354;2022-09-09T05:45:45;22.73;;;20.60;;
56657;SDS011;42530;52.240;19.354;2022-09-09T05:48:13;28.05;;;25.02;;
56657;SDS011;42530;52.240;19.354;2022-09-09T05:50:41;29.25;;;26.42;;
56657;SDS011;42530;52.240;19.354;2022-09-09T05:53:08;27.25;;;24.02;;
56657;SDS011;42530;52.240;19.354;2022-09-09T05:55:35;24.08;;;21.10;;
56657;SDS011;42530;52.240;19.354;2022-09-09T05:58:00;22.42;;;19.95;;
56657;SDS011;42530;52.240;19.354;2022-09-09T06:00:26;21.08;;;18.90;;
56657;SDS011;42530;52.240;19.354;2022-09-09T06:02:52;22.67;;;19.95;;
56657;SDS011;42530;52.240;19.354;2022-09-09T06:05:18;20.83;;;18.60;;
56657;SDS011;42530;52.240;19.354;2022-09-09T06:07:44;29.95;;;24.55;;
56657;SDS011;42530;52.240;19.354;2022-09-09T06:10:10;26.75;;;24.15;;
56657;SDS011;42530;52.240;19.354;2022-09-09T06:12:39;24.10;;;21.65;;
56657;SDS011;42530;52.240;19.354;2022-09-09T06:15:05;37.95;;;32.47;;
56657;SDS011;42530;52.240;19.354;2022-09-09T06:17:31;30.17;;;26.58;;
56657;SDS011;42530;52.240;19.354;2022-09-09T06:19:56;30.02;;;26.92;;
56657;SDS011;42530;52.240;19.354;2022-09-09T06:22:22;23.77;;;20.05;;
56657;SDS011;42530;52.240;19.354;2022-09-09T06:24:47;21.58;;;19.33;;
56657;SDS011;42530;52.240;19.354;2022-09-09T06:27:13;24.27;;;20.83;;
56657;SDS011;42530;52.240;19.354;2022-09-09T06:29:38;23.98;;;20.90;;
56657;SDS011;42530;52.240;19.354;2022-09-09T06:32:04;27.02;;;22.10;;
56657;SDS011;42530;52.240;19.354;2022-09-09T06:34:32;26.15;;;23.27;;
56657;SDS011;42530;52.240;19.354;2022-09-09T06:39:52;24.55;;;21.75;;
56657;SDS011;42530;52.240;19.354;2022-09-09T06:42:17;23.60;;;19.33;;
56657;SDS011;42530;52.240;19.354;2022-09-09T06:44:43;30.08;;;25.92;;
56657;SDS011;42530;52.240;19.354;2022-09-09T06:47:08;28.77;;;25.83;;
56657;SDS011;42530;52.240;19.354;2022-09-09T06:49:34;26.95;;;23.15;;
56657;SDS011;42530;52.240;19.354;2022-09-09T06:52:00;23.05;;;19.05;;
56657;SDS011;42530;52.240;19.354;2022-09-09T06:54:25;19.80;;;18.10;;
56657;SDS011;42530;52.240;19.354;2022-09-09T06:56:51;23.15;;;20.15;;
56657;SDS011;42530;52.240;19.354;2022-09-09T06:59:16;22.90;;;19.55;;
56657;SDS011;42530;52.240;19.354;2022-09-09T07:01:43;25.70;;;18.77;;
56657;SDS011;42530;52.240;19.354;2022-09-09T07:04:16;25.17;;;19.73;;
56657;SDS011;42530;52.240;19.354;2022-09-09T07:06:45;23.98;;;20.33;;
56657;SDS011;42530;52.240;19.354;2022-09-09T07:09:15;20.98;;;16.70;;
56657;SDS011;42530;52.240;19.354;2022-09-09T07:11:44;27.13;;;18.98;;
56657;SDS011;42530;52.240;19.354;2022-09-09T07:14:11;21.25;;;18.40;;
56657;SDS011;42530;52.240;19.354;2022-09-09T07:16:39;22.83;;;19.73;;
56657;SDS011;42530;52.240;19.354;2022-09-09T07:19:05;25.75;;;20.92;;
56657;SDS011;42530;52.240;19.354;2022-09-09T07:21:31;20.02;;;17.80;;
56657;SDS011;42530;52.240;19.354;2022-09-09T07:23:58;24.58;;;18.48;;
56657;SDS011;42530;52.240;19.354;2022-09-09T07:26:25;21.05;;;18.67;;
56657;SDS011;42530;52.240;19.354;2022-09-09T07:28:52;23.58;;;19.98;;
56657;SDS011;42530;52.240;19.354;2022-09-09T07:31:19;27.60;;;19.15;;
56657;SDS011;42530;52.240;19.354;2022-09-09T07:33:47;30.23;;;20.52;;
56657;SDS011;42530;52.240;19.354;2022-09-09T07:36:14;22.80;;;19.67;;
56657;SDS011;42530;52.240;19.354;2022-09-09T07:38:43;23.20;;;19.27;;
56657;SDS011;42530;52.240;19.354;2022-09-09T07:41:11;24.67;;;19.05;;
56657;SDS011;42530;52.240;19.354;2022-09-09T07:43:41;23.95;;;18.63;;
56657;SDS011;42530;52.240;19.354;2022-09-09T07:46:08;25.25;;;20.17;;
56657;SDS011;42530;52.240;19.354;2022-09-09T07:48:35;24.52;;;21.92;;
56657;SDS011;42530;52.240;19.354;2022-09-09T07:51:11;23.40;;;19.60;;
56657;SDS011;42530;52.240;19.354;2022-09-09T07:53:42;24.95;;;18.48;;
56657;SDS011;42530;52.240;19.354;2022-09-09T07:56:10;24.63;;;20.20;;
56657;SDS011;42530;52.240;19.354;2022-09-09T07:58:38;29.02;;;20.73;;
56657;SDS011;42530;52.240;19.354;2022-09-09T08:01:09;24.67;;;20.02;;
56657;SDS011;42530;52.240;19.354;2022-09-09T08:03:36;22.08;;;19.70;;
56657;SDS011;42530;52.240;19.354;2022-09-09T08:06:03;20.83;;;18.58;;
56657;SDS011;42530;52.240;19.354;2022-09-09T08:08:31;26.90;;;19.83;;
56657;SDS011;42530;52.240;19.354;2022-09-09T08:11:30;22.90;;;19.02;;
56657;SDS011;42530;52.240;19.354;2022-09-09T08:13:50;21.55;;;18.88;;
56657;SDS011;42530;52.240;19.354;2022-09-09T08:16:17;26.08;;;20.20;;
56657;SDS011;42530;52.240;19.354;2022-09-09T08:18:48;25.30;;;19.52;;
56657;SDS011;42530;52.240;19.354;2022-09-09T08:21:19;30.45;;;22.20;;
56657;SDS011;42530;52.240;19.354;2022-09-09T08:23:47;20.63;;;17.40;;
56657;SDS011;42530;52.240;19.354;2022-09-09T08:26:16;24.58;;;17.95;;
56657;SDS011;42530;52.240;19.354;2022-09-09T08:28:48;24.55;;;19.70;;
56657;SDS011;42530;52.240;19.354;2022-09-09T08:31:20;20.58;;;18.45;;
56657;SDS011;42530;52.240;19.354;2022-09-09T08:33:47;25.27;;;21.30;;
56657;SDS011;42530;52.240;19.354;2022-09-09T08:36:14;28.92;;;21.77;;
56657;SDS011;42530;52.240;19.354;2022-09-09T08:38:48;24.20;;;20.13;;
56657;SDS011;42530;52.240;19.354;2022-09-09T08:43:48;21.13;;;17.98;;
56657;SDS011;42530;52.240;19.354;2022-09-09T08:46:20;24.27;;;20.73;;
56657;SDS011;42530;52.240;19.354;2022-09-09T08:49:02;25.55;;;20.60;;
56657;SDS011;42530;52.240;19.354;2022-09-09T08:51:50;24.38;;;19.67;;
56657;SDS011;42530;52.240;19.354;2022-09-09T08:54:20;35.45;;;22.73;;
56657;SDS011;42530;52.240;19.354;2022-09-09T08:56:51;26.55;;;22.08;;
56657;SDS011;42530;52.240;19.354;2022-09-09T08:59:17;28.83;;;22.67;;
56657;SDS011;42530;52.240;19.354;2022-09-09T09:01:48;22.95;;;20.55;;
56657;SDS011;42530;52.240;19.354;2022-09-09T09:12:44;24.95;;;22.23;;
56657;SDS011;42530;52.240;19.354;2022-09-09T09:15:23;26.48;;;22.63;;
56657;SDS011;42530;52.240;19.354;2022-09-09T09:17:50;22.50;;;20.05;;
56657;SDS011;42530;52.240;19.354;2022-09-09T09:20:16;30.92;;;22.83;;
56657;SDS011;42530;52.240;19.354;2022-09-09T09:25:19;24.10;;;21.33;;
56657;SDS011;42530;52.240;19.354;2022-09-09T09:27:54;25.08;;;22.60;;
56657;SDS011;42530;52.240;19.354;2022-09-09T09:35:58;26.75;;;22.90;;
56657;SDS011;42530;52.240;19.354;2022-09-09T09:38:25;22.50;;;20.20;;
56657;SDS011;42530;52.240;19.354;2022-09-09T09:40:53;23.55;;;21.15;;
56657;SDS011;42530;52.240;19.354;2022-09-09T09:45:51;22.15;;;19.77;;
56657;SDS011;42530;52.240;19.354;2022-09-09T09:48:16;19.92;;;17.85;;
56657;SDS011;42530;52.240;19.354;2022-09-09T09:53:19;23.33;;;20.33;;
56657;SDS011;42530;52.240;19.354;2022-09-09T09:55:52;26.67;;;20.50;;
56657;SDS011;42530;52.240;19.354;2022-09-09T09:58:21;24.38;;;20.95;;
56657;SDS011;42530;52.240;19.354;2022-09-09T10:00:47;22.17;;;19.98;;
56657;SDS011;42530;52.240;19.354;2022-09-09T10:03:20;20.58;;;18.30;;
56657;SDS011;42530;52.240;19.354;2022-09-09T10:05:48;19.88;;;17.65;;
56657;SDS011;42530;52.240;19.354;2022-09-09T10:08:15;21.00;;;18.98;;
56657;SDS011;42530;52.240;19.354;2022-09-09T10:13:22;19.00;;;17.02;;
56657;SDS011;42530;52.240;19.354;2022-09-09T10:16:09;20.87;;;17.63;;
56657;SDS011;42530;52.240;19.354;2022-09-09T10:18:59;18.88;;;17.08;;
56657;SDS011;42530;52.240;19.354;2022-09-09T10:38:02;17.23;;;15.48;;
56657;SDS011;42530;52.240;19.354;2022-09-09T10:48:58;15.32;;;13.85;;
56657;SDS011;42530;52.240;19.354;2022-09-09T10:54:21;13.45;;;12.10;;
56657;SDS011;42530;52.240;19.354;2022-09-09T10:57:43;12.63;;;11.43;;
56657;SDS011;42530;52.240;19.354;2022-09-09T11:00:02;11.00;;;10.05;;
56657;SDS011;42530;52.240;19.354;2022-09-09T11:02:31;12.55;;;10.75;;
56657;SDS011;42530;52.240;19.354;2022-09-09T11:05:01;16.48;;;12.38;;
56657;SDS011;42530;52.240;19.354;2022-09-09T11:07:59;14.50;;;12.90;;
56657;SDS011;42530;52.240;19.354;2022-09-09T11:13:15;10.35;;;9.48;;
56657;SDS011;42530;52.240;19.354;2022-09-09T11:15:50;10.90;;;9.90;;
56657;SDS011;42530;52.240;19.354;2022-09-09T11:18:20;9.35;;;8.48;;
56657;SDS011;42530;52.240;19.354;2022-09-09T11:20:49;8.75;;;7.97;;
56657;SDS011;42530;52.240;19.354;2022-09-09T11:23:27;8.23;;;7.43;;
56657;SDS011;42530;52.240;19.354;2022-09-09T11:26:04;7.25;;;6.65;;
56657;SDS011;42530;52.240;19.354;2022-09-09T11:36:54;5.22;;;4.75;;
56657;SDS011;42530;52.240;19.354;2022-09-09T11:42:20;5.15;;;4.75;;
56657;SDS011;42530;52.240;19.354;2022-09-09T11:44:49;5.47;;;5.07;;
56657;SDS011;42530;52.240;19.354;2022-09-09T11:49:51;5.10;;;4.70;;
56657;SDS011;42530;52.240;19.354;2022-09-09T11:52:25;3.03;;;2.83;;
56657;SDS011;42530;52.240;19.354;2022-09-09T11:58:32;5.63;;;4.38;;
56657;SDS011;42530;52.240;19.354;2022-09-09T12:00:50;7.20;;;3.97;;
56657;SDS011;42530;52.240;19.354;2022-09-09T12:08:40;4.72;;;4.32;;
56657;SDS011;42530;52.240;19.354;2022-09-09T12:11:08;5.50;;;5.07;;
56657;SDS011;42530;52.240;19.354;2022-09-09T12:13:34;5.18;;;4.63;;
56657;SDS011;42530;52.240;19.354;2022-09-09T12:16:01;5.03;;;4.53;;
56657;SDS011;42530;52.240;19.354;2022-09-09T12:18:34;5.72;;;5.22;;
56657;SDS011;42530;52.240;19.354;2022-09-09T12:21:15;6.32;;;5.72;;
56657;SDS011;42530;52.240;19.354;2022-09-09T12:23:53;10.52;;;9.48;;
56657;SDS011;42530;52.240;19.354;2022-09-09T12:29:55;10.13;;;9.23;;
56657;SDS011;42530;52.240;19.354;2022-09-09T12:32:20;7.93;;;7.32;;
56657;SDS011;42530;52.240;19.354;2022-09-09T12:34:53;7.38;;;6.78;;
56657;SDS011;42530;52.240;19.354;2022-09-09T12:40:17;7.43;;;6.55;;
56657;SDS011;42530;52.240;19.354;2022-09-09T12:42:43;7.10;;;6.60;;
56657;SDS011;42530;52.240;19.354;2022-09-09T12:45:16;7.97;;;7.25;;
56657;SDS011;42530;52.240;19.354;2022-09-09T12:47:46;7.43;;;6.72;;
56657;SDS011;42530;52.240;19.354;2022-09-09T12:50:17;8.48;;;7.78;;
56657;SDS011;42530;52.240;19.354;2022-09-09T12:52:46;7.15;;;6.55;;
56657;SDS011;42530;52.240;19.354;2022-09-09T12:55:16;9.88;;;7.45;;
56657;SDS011;42530;52.240;19.354;2022-09-09T12:57:44;13.50;;;9.55;;
56657;SDS011;42530;52.240;19.354;2022-09-09T13:00:17;10.55;;;9.45;;
56657;SDS011;42530;52.240;19.354;2022-09-09T13:02:52;11.25;;;10.13;;
56657;SDS011;42530;52.240;19.354;2022-09-09T13:05:26;12.85;;;9.70;;
56657;SDS011;42530;52.240;19.354;2022-09-09T13:08:09;9.30;;;8.40;;
56657;SDS011;42530;52.240;19.354;2022-09-09T13:10:58;9.30;;;8.43;;
56657;SDS011;42530;52.240;19.354;2022-09-09T13:13:29;10.40;;;9.48;;
56657;SDS011;42530;52.240;19.354;2022-09-09T13:16:00;12.15;;;10.52;;
56657;SDS011;42530;52.240;19.354;2022-09-09T13:18:29;11.02;;;9.95;;
56657;SDS011;42530;52.240;19.354;2022-09-09T13:21:05;10.85;;;9.75;;
56657;SDS011;42530;52.240;19.354;2022-09-09T13:23:32;12.38;;;11.30;;
56657;SDS011;42530;52.240;19.354;2022-09-09T13:28:49;14.73;;;10.50;;
56657;SDS011;42530;52.240;19.354;2022-09-09T13:31:29;10.10;;;9.13;;
56657;SDS011;42530;52.240;19.354;2022-09-09T13:33:56;9.85;;;8.95;;
56657;SDS011;42530;52.240;19.354;2022-09-09T13:36:33;10.48;;;9.63;;
56657;SDS011;42530;52.240;19.354;2022-09-09T13:39:00;20.92;;;18.90;;
56657;SDS011;42530;52.240;19.354;2022-09-09T13:41:42;9.30;;;8.40;;
56657;SDS011;42530;52.240;19.354;2022-09-09T13:44:17;10.15;;;9.18;;
56657;SDS011;42530;52.240;19.354;2022-09-09T13:46:59;10.85;;;9.82;;
56657;SDS011;42530;52.240;19.354;2022-09-09T13:49:42;8.32;;;7.63;;
56657;SDS011;42530;52.240;19.354;2022-09-09T13:52:12;9.07;;;8.32;;
56657;SDS011;42530;52.240;19.354;2022-09-09T13:54:51;8.80;;;8.00;;
56657;SDS011;42530;52.240;19.354;2022-09-09T13:59:53;8.80;;;8.00;;
56657;SDS011;42530;52.240;19.354;2022-09-09T14:02:20;10.20;;;9.40;;
56657;SDS011;42530;52.240;19.354;2022-09-09T14:04:48;8.82;;;8.13;;
56657;SDS011;42530;52.240;19.354;2022-09-09T14:07:16;12.13;;;11.10;;
56657;SDS011;42530;52.240;19.354;2022-09-09T14:09:43;11.55;;;9.77;;
56657;SDS011;42530;52.240;19.354;2022-09-09T14:12:11;10.32;;;9.48;;
56657;SDS011;42530;52.240;19.354;2022-09-09T14:14:39;10.48;;;9.65;;
56657;SDS011;42530;52.240;19.354;2022-09-09T14:17:04;12.55;;;10.45;;
56657;SDS011;42530;52.240;19.354;2022-09-09T14:19:30;11.40;;;9.80;;
56657;SDS011;42530;52.240;19.354;2022-09-09T14:21:56;13.88;;;9.50;;
56657;SDS011;42530;52.240;19.354;2022-09-09T14:24:23;13.82;;;12.70;;
56657;SDS011;42530;52.240;19.354;2022-09-09T14:26:48;13.57;;;12.27;;
56657;SDS011;42530;52.240;19.354;2022-09-09T14:29:14;12.55;;;11.32;;
56657;SDS011;42530;52.240;19.354;2022-09-09T14:31:39;13.13;;;12.00;;
56657;SDS011;42530;52.240;19.354;2022-09-09T14:34:05;14.48;;;13.27;;
56657;SDS011;42530;52.240;19.354;2022-09-09T14:36:31;15.93;;;14.02;;
56657;SDS011;42530;52.240;19.354;2022-09-09T14:38:56;15.48;;;13.73;;
56657;SDS011;42530;52.240;19.354;2022-09-09T14:41:23;19.55;;;12.68;;
56657;SDS011;42530;52.240;19.354;2022-09-09T14:43:50;14.07;;;12.77;;
56657;SDS011;42530;52.240;19.354;2022-09-09T14:46:17;14.32;;;13.13;;
56657;SDS011;42530;52.240;19.354;2022-09-09T14:48:44;12.20;;;11.15;;
56657;SDS011;42530;52.240;19.354;2022-09-09T14:51:14;14.23;;;12.80;;
56657;SDS011;42530;52.240;19.354;2022-09-09T14:53:42;16.50;;;14.75;;
56657;SDS011;42530;52.240;19.354;2022-09-09T14:56:15;14.70;;;13.23;;
56657;SDS011;42530;52.240;19.354;2022-09-09T14:58:47;12.60;;;11.38;;
56657;SDS011;42530;52.240;19.354;2022-09-09T15:01:14;12.73;;;11.35;;
56657;SDS011;42530;52.240;19.354;2022-09-09T15:03:42;13.40;;;11.45;;
56657;SDS011;42530;52.240;19.354;2022-09-09T15:06:14;16.67;;;12.35;;
56657;SDS011;42530;52.240;19.354;2022-09-09T15:08:40;12.65;;;11.38;;
56657;SDS011;42530;52.240;19.354;2022-09-09T15:11:08;14.15;;;11.68;;
56657;SDS011;42530;52.240;19.354;2022-09-09T15:13:35;13.20;;;11.90;;
56657;SDS011;42530;52.240;19.354;2022-09-09T15:16:07;14.02;;;12.68;;
56657;SDS011;42530;52.240;19.354;2022-09-09T15:18:41;13.50;;;12.20;;
56657;SDS011;42530;52.240;19.354;2022-09-09T15:21:08;14.75;;;13.25;;
56657;SDS011;42530;52.240;19.354;2022-09-09T15:23:35;13.63;;;12.25;;
56657;SDS011;42530;52.240;19.354;2022-09-09T15:26:02;14.90;;;13.40;;
56657;SDS011;42530;52.240;19.354;2022-09-09T15:28:28;15.55;;;14.13;;
56657;SDS011;42530;52.240;19.354;2022-09-09T15:30:54;14.40;;;13.00;;
56657;SDS011;42530;52.240;19.354;2022-09-09T15:33:21;15.27;;;13.75;;
56657;SDS011;42530;52.240;19.354;2022-09-09T15:35:47;15.95;;;14.32;;
56657;SDS011;42530;52.240;19.354;2022-09-09T15:38:15;15.35;;;13.77;;
56657;SDS011;42530;52.240;19.354;2022-09-09T15:40:42;14.80;;;12.65;;
56657;SDS011;42530;52.240;19.354;2022-09-09T15:43:08;12.93;;;11.68;;
56657;SDS011;42530;52.240;19.354;2022-09-09T15:45:35;15.57;;;14.05;;
56657;SDS011;42530;52.240;19.354;2022-09-09T15:48:02;15.15;;;13.70;;
56657;SDS011;42530;52.240;19.354;2022-09-09T15:50:29;14.90;;;12.75;;
56657;SDS011;42530;52.240;19.354;2022-09-09T15:53:00;18.55;;;15.35;;
56657;SDS011;42530;52.240;19.354;2022-09-09T15:55:26;17.33;;;13.75;;
56657;SDS011;42530;52.240;19.354;2022-09-09T15:57:52;18.38;;;13.55;;
56657;SDS011;42530;52.240;19.354;2022-09-09T16:00:18;15.05;;;13.52;;
56657;SDS011;42530;52.240;19.354;2022-09-09T16:02:46;15.57;;;14.13;;
56657;SDS011;42530;52.240;19.354;2022-09-09T16:05:12;17.10;;;15.50;;
56657;SDS011;42530;52.240;19.354;2022-09-09T16:07:38;15.35;;;13.75;;
56657;SDS011;42530;52.240;19.354;2022-09-09T16:10:04;17.92;;;15.65;;
56657;SDS011;42530;52.240;19.354;2022-09-09T16:12:31;14.77;;;13.27;;
56657;SDS011;42530;52.240;19.354;2022-09-09T16:14:56;15.07;;;13.60;;
56657;SDS011;42530;52.240;19.354;2022-09-09T16:17:21;16.77;;;13.52;;
56657;SDS011;42530;52.240;19.354;2022-09-09T16:19:47;14.27;;;12.82;;
56657;SDS011;42530;52.240;19.354;2022-09-09T16:22:12;17.75;;;16.15;;
56657;SDS011;42530;52.240;19.354;2022-09-09T16:24:40;19.33;;;17.50;;
56657;SDS011;42530;52.240;19.354;2022-09-09T16:27:06;19.48;;;17.10;;
56657;SDS011;42530;52.240;19.354;2022-09-09T16:29:32;20.00;;;17.95;;
56657;SDS011;42530;52.240;19.354;2022-09-09T16:31:58;21.08;;;19.10;;
56657;SDS011;42530;52.240;19.354;2022-09-09T16:34:25;22.52;;;20.27;;
56657;SDS011;42530;52.240;19.354;2022-09-09T16:36:50;23.20;;;20.83;;
56657;SDS011;42530;52.240;19.354;2022-09-09T16:39:17;23.70;;;21.33;;
56657;SDS011;42530;52.240;19.354;2022-09-09T16:41:44;26.63;;;24.02;;
56657;SDS011;42530;52.240;19.354;2022-09-09T16:44:14;27.50;;;23.58;;